Flight Track Log - Related Links

Times and Time Zones

All times are in EDT time to prevent confusion due to time zone crossing. See the SWA385 flight status page for this flight to view local times or setup timezone preferences in your user account.

Time Position Orientation Groundspeed Altitude Reporting Facility
EDT Latitude Longitude Course Direction KTS MPH feet Rate Location/Type
Sun 07:01:54 PM 38.9333 -77.5167 303° West 188 216 3,000  Level Potomac TRACON
Sun 07:03:14 PM 38.9108 -77.6297 256° West 244 281 5,200 2,696 Climbing Washington Center
Sun 07:04:12 PM 38.8944 -77.7281 258° West 256 295 9,200 3,277 Climbing Washington Center
Sun 07:05:13 PM 38.9031 -77.8244 277° West 266 306 11,700 2,705 Climbing Washington Center
Sun 07:06:14 PM 38.9217 -77.9475 281° West 312 359 14,700 2,695 Climbing Washington Center
Sun 07:07:00 PM 38.9421 -78.1843 303° West  Level FlightAware Approximate
Sun 07:07:11 PM 38.9378 -78.0708 280° West 340 391 17,000  Level Washington Center
Sun 07:08:12 PM 38.9561 -78.1942 281° West 353 406 17,800 1,756 Climbing Washington Center
Sun 07:09:14 PM 38.9636 -78.3253 274° West 364 419 20,600 2,557 Climbing Washington Center
Sun 07:10:14 PM 38.9689 -78.4564 273° West 370 426 23,000 2,300 Climbing Washington Center
Sun 07:11:14 PM 38.9719 -78.5953 272° West 380 437 25,200 2,186 Climbing Washington Center
Sun 07:12:12 PM 38.9767 -78.7372 272° West 391 450 27,300 1,780 Climbing Washington Center
Sun 07:13:12 PM 38.9789 -78.8842 271° West 408 470 28,700 1,350 Climbing Washington Center
Sun 07:14:12 PM 38.9828 -79.0392 272° West 423 487 30,000 1,488 Climbing Washington Center
Sun 07:15:13 PM 38.9886 -79.1997 273° West 441 507 31,700 1,820 Climbing Washington Center
Sun 07:16:14 PM 38.9919 -79.3575 272° West 447 514 33,700 2,017 Climbing Washington Center
Sun 07:17:12 PM 38.9933 -79.5125 271° West 447 514 35,700 1,613 Climbing Washington Center
Sun 07:18:13 PM 38.9989 -79.6569 273° West 442 509 36,900 1,140 Climbing Washington Center
Sun 07:19:13 PM 39.0017 -79.8200 271° West 442 509 38,000 660 Climbing Washington Center
Sun 07:19:53 PM 39.0014 -79.9067 270° West 424 488 38,000  Level Indianapolis Center
Sun 07:20:55 PM 39.0028 -80.0522 271° West 421 484 38,000  Level Indianapolis Center
Sun 07:21:56 PM 39.0058 -80.2044 272° West 424 488 38,000  Level Indianapolis Center
Sun 07:22:58 PM 39.0086 -80.3867 271° West 424 488 38,000  Level Indianapolis Center
Sun 07:24:00 PM 39.0272 -80.5342 279° West 432 497 38,000  Level Indianapolis Center
Sun 07:25:02 PM 39.0869 -80.6728 299° West 444 511 38,000  Level Indianapolis Center
Sun 07:26:04 PM 39.1472 -80.8075 300° West 438 504 38,000  Level Indianapolis Center
Sun 07:27:05 PM 39.2083 -80.9422 300° West 438 504 38,000  Level Indianapolis Center
Sun 07:28:07 PM 39.2681 -81.0772 300° West 435 501 38,000  Level Indianapolis Center
Sun 07:29:09 PM 39.3406 -81.2383 300° West 434 499 38,000  Level Indianapolis Center
Sun 07:30:11 PM 39.3997 -81.3753 299° West 437 503 38,000  Level Indianapolis Center
Sun 07:31:13 PM 39.4597 -81.5108 300° West 436 502 38,000  Level Indianapolis Center
Sun 07:32:15 PM 39.5192 -81.6478 299° West 438 504 38,000  Level Indianapolis Center
Sun 07:33:16 PM 39.5792 -81.7844 300° West 438 504 38,000  Level Indianapolis Center
Sun 07:34:18 PM 39.6378 -81.9217 299° West 438 504 38,000  Level Indianapolis Center
Sun 07:35:20 PM 39.6983 -82.0589 300° West 438 504 38,000  Level Indianapolis Center
Sun 07:36:22 PM 39.7692 -82.2264 299° West 439 505 38,000  Level Indianapolis Center
Sun 07:37:24 PM 39.8292 -82.3672 299° West 442 509 38,000 -339 Level Indianapolis Center
Sun 07:38:26 PM 39.8900 -82.5078 299° West 442 509 37,300 -774 Descending Indianapolis Center
Sun 07:39:28 PM 39.9486 -82.6478 299° West 439 505 36,400 -629 Descending Indianapolis Center
Sun 07:40:30 PM 40.0089 -82.7911 299° West 447 514 36,000 -194 Descending Indianapolis Center
Sun 07:41:32 PM 40.0692 -82.9333 299° West 447 514 36,000  Level Indianapolis Center
Sun 07:42:33 PM 40.1283 -83.0750 299° West 445 512 36,000  Level Indianapolis Center
Sun 07:43:35 PM 40.1972 -83.2397 299° West 442 509 36,000  Level Indianapolis Center
Sun 07:44:37 PM 40.2547 -83.3808 298° West 440 506 36,000  Level Indianapolis Center
Sun 07:45:39 PM 40.3114 -83.5175 299° West 428 493 36,000  Level Indianapolis Center
Sun 07:46:41 PM 40.3681 -83.6553 298° West 429 494 36,000  Level Indianapolis Center
Sun 07:47:43 PM 40.4244 -83.7914 299° West 425 489 36,000 -435 Level Indianapolis Center
Sun 07:48:45 PM 40.4797 -83.9297 298° West 426 490 35,100 -968 Descending Indianapolis Center
Sun 07:49:47 PM 40.5442 -84.0864 298° West 416 479 34,000 -1,024 Descending Indianapolis Center
Sun 07:50:48 PM 40.5989 -84.2211 298° West 415 478 33,000 -927 Descending Indianapolis Center
Sun 07:51:50 PM 40.6467 -84.3603 294° West 415 478 32,100 -919 Descending Indianapolis Center
Sun 07:52:52 PM 40.6764 -84.5125 284° West 424 488 31,100 -968 Descending Indianapolis Center
Sun 07:53:54 PM 40.7056 -84.6639 284° West 423 487 30,100 -532 Descending Indianapolis Center
Sun 07:54:56 PM 40.7364 -84.8108 286° West 415 478 30,000 -55 Descending Indianapolis Center
Sun 07:55:43 PM 40.7719 -84.9364 291° West 416 479 30,000  Level Chicago Center
Sun 07:56:46 PM 40.8481 -85.0439 313° West 403 464 30,000 -672 Level Chicago Center
Sun 07:57:48 PM 40.9225 -85.1544 312° West 403 464 28,600 -968 Descending Chicago Center
Sun 07:58:50 PM 40.9939 -85.2608 312° West 393 452 28,000 -629 Descending Chicago Center
Sun 07:59:52 PM 41.0681 -85.3644 314° West 388 447 27,300 -823 Descending Chicago Center
Sun 08:00:54 PM 41.1406 -85.4694 313° West 386 444 26,300 -1,645 Descending Chicago Center
Sun 08:01:56 PM 41.2264 -85.5939 313° West 381 438 23,900 -1,839 Descending Chicago Center
Sun 08:02:58 PM 41.2975 -85.6967 313° West 377 434 22,500 -1,113 Descending Chicago Center
Sun 08:04:00 PM 41.3669 -85.7978 312° West 370 426 21,600 -1,500 Descending Chicago Center
Sun 08:05:02 PM 41.4339 -85.8956 312° West 356 410 19,400 -2,081 Descending Chicago Center
Sun 08:06:04 PM 41.5050 -85.9975 313° West 369 425 17,300 -2,081 Descending Chicago Center
Sun 08:07:06 PM 41.5236 -86.1294 281° West 368 423 15,100 -2,081 Descending Chicago Center
Sun 08:08:08 PM 41.5231 -86.2614 270° West 358 412 13,000 -2,032 Descending Chicago Center
Sun 08:09:10 PM 41.5225 -86.4156 270° West 345 397 10,900 -1,392 Descending Chicago Center
Sun 08:10:13 PM 41.5222 -86.5364 270° West 329 379 10,100 -384 Descending Chicago Center
Sun 08:11:15 PM 41.5203 -86.6564 269° West 324 373 10,100 -48 Level Chicago Center
Sun 08:12:17 PM 41.5203 -86.7844 270° West 319 367 10,000 -532 Descending Chicago Center
Sun 08:13:19 PM 41.5192 -86.8928 269° West 299 344 9,000 -1,016 Descending Chicago Center
Sun 08:14:21 PM 41.5178 -86.9967 269° West 282 325 7,900 -1,258 Descending Chicago Center
Sun 08:15:23 PM 41.5208 -87.0964 272° West 272 313 6,400 -919 Descending Chicago Center
Sun 08:16:25 PM 41.5553 -87.2033 293° West 263 303 6,000 -387 Descending Chicago Center
Sun 08:17:27 PM 41.5792 -87.2914 290° West 256 295 5,600 -387 Descending Chicago Center
Sun 08:18:29 PM 41.6053 -87.3817 291° West 261 300 5,200 -387 Descending Chicago Center
Sun 08:19:31 PM 41.6303 -87.4717 290° West 262 302 4,800 -581 Descending Chicago Center
Sun 08:20:33 PM 41.6547 -87.5583 291° West 257 296 4,000 -1,016 Descending Chicago Center
Sun 08:21:35 PM 41.7028 -87.6358 310° West 242 278 2,700 -919 Descending Chicago Center
Sun 08:22:37 PM 41.7511 -87.6686 333° Northwest 226 260 2,100 -484 Descending Chicago Center
Sun 08:23:39 PM 41.7972 -87.6639 North 209 241 1,700 -387 Descending Chicago Center
Sun 08:24:41 PM 41.8189 -87.7064 304° West 167 192 1,300 -384 Descending Chicago Center
Sun 08:25:44 PM 41.7925 -87.7478 229° Southwest 153 176 900 -381 Descending Chicago Center

Login

Don't have an account? Register now (free) for customized features, flight alerts, and more!